Time;durP1;ratioP1;P1;durP2;ratioP2;P2;SDS_P1;SDS_P2;PMS_P1;PMS_P2;Temp;Humidity;BMP_temperature;BMP_pressure;BME280_temperature;BME280_humidity;BME280_pressure;Samples;Min_cycle;Max_cycle;Signal;HPM_P1;HPM_P2
2024/01/17 00:01:22;;;;;;;11.57;6.78;;;2.10;98.50;;;;;;6241555;23;20008;-65
2024/01/17 00:04:08;;;;;;;11.30;7.13;;;2.00;98.50;;;;;;6243345;23;20047;-66
2024/01/17 00:06:57;;;;;;;14.10;7.20;;;2.00;98.50;;;;;;6243293;23;20416;-66
2024/01/17 00:09:43;;;;;;;13.10;7.50;;;2.00;98.60;;;;;;6250609;23;20020;-65
2024/01/17 00:12:30;;;;;;;12.05;7.50;;;2.00;98.60;;;;;;6270251;23;20046;-66
2024/01/17 00:15:18;;;;;;;14.43;7.45;;;2.00;98.60;;;;;;6257143;22;20492;-66
2024/01/17 00:18:04;;;;;;;11.55;6.60;;;1.90;98.50;;;;;;6243255;23;20030;-66
2024/01/17 00:20:50;;;;;;;11.63;7.15;;;1.90;98.50;;;;;;6243192;23;20461;-66
2024/01/17 00:23:36;;;;;;;12.48;6.63;;;1.90;98.60;;;;;;6240840;23;20013;-66
2024/01/17 00:26:22;;;;;;;11.65;6.45;;;1.90;98.60;;;;;;6242568;23;20008;-66
2024/01/17 00:29:08;;;;;;;10.75;6.88;;;1.80;98.60;;;;;;6241111;23;20028;-66
2024/01/17 00:31:54;;;;;;;10.57;6.85;;;1.80;98.60;;;;;;6240789;23;20453;-66
2024/01/17 00:34:40;;;;;;;12.77;6.82;;;1.80;98.60;;;;;;6242861;23;20042;-66
2024/01/17 00:37:26;;;;;;;10.25;5.90;;;1.70;98.60;;;;;;6243859;23;20012;-66
2024/01/17 00:40:11;;;;;;;11.60;6.80;;;1.70;98.60;;;;;;6243014;23;20019;-66
2024/01/17 00:42:57;;;;;;;13.18;6.00;;;1.70;98.60;;;;;;6243269;23;20008;-66
2024/01/17 00:45:44;;;;;;;8.93;5.97;;;1.60;98.60;;;;;;6241510;23;20020;-66
2024/01/17 00:48:31;;;;;;;13.15;6.97;;;1.60;98.60;;;;;;6242848;23;20023;-66
2024/01/17 00:51:24;;;;;;;10.18;6.45;;;1.60;98.60;;;;;;6242974;23;20008;-66
2024/01/17 00:54:10;;;;;;;10.48;5.88;;;1.60;98.60;;;;;;6243709;23;20012;-66
2024/01/17 00:56:58;;;;;;;8.10;5.72;;;1.50;98.60;;;;;;6243031;23;20012;-66
2024/01/17 00:59:44;;;;;;;10.50;5.72;;;1.50;98.60;;;;;;6240920;23;20012;-66
2024/01/17 01:02:30;;;;;;;11.80;5.97;;;1.50;98.60;;;;;;6243124;23;20012;-66
2024/01/17 01:05:16;;;;;;;11.25;5.97;;;1.50;98.60;;;;;;6241828;23;20004;-66
2024/01/17 01:08:02;;;;;;;13.98;6.35;;;1.40;98.50;;;;;;6240362;23;20012;-66
2024/01/17 01:10:48;;;;;;;12.73;7.15;;;1.40;98.60;;;;;;6242325;23;20012;-66
2024/01/17 01:13:34;;;;;;;11.70;6.30;;;1.40;98.60;;;;;;6240975;23;20444;-66
2024/01/17 01:16:20;;;;;;;10.40;7.07;;;1.30;98.60;;;;;;6241072;23;20012;-66
2024/01/17 01:19:06;;;;;;;10.32;6.60;;;1.30;98.60;;;;;;6240897;23;20369;-66
2024/01/17 01:21:51;;;;;;;11.60;7.18;;;1.30;98.60;;;;;;6240953;23;20016;-66
2024/01/17 01:24:37;;;;;;;12.68;6.80;;;1.30;98.60;;;;;;6240777;23;20039;-66
2024/01/17 01:27:23;;;;;;;12.18;6.97;;;1.20;98.50;;;;;;6241318;23;20019;-66
2024/01/17 01:30:10;;;;;;;14.07;7.07;;;1.20;98.50;;;;;;6241053;23;20369;-66
2024/01/17 01:32:56;;;;;;;12.13;7.47;;;1.20;98.50;;;;;;6242781;23;20016;-66
2024/01/17 01:35:42;;;;;;;11.15;6.70;;;1.20;98.60;;;;;;6242368;23;20040;-66
2024/01/17 01:38:27;;;;;;;12.43;6.85;;;1.10;98.60;;;;;;6241128;23;20012;-66
2024/01/17 01:41:13;;;;;;;10.48;6.95;;;1.10;98.50;;;;;;6241113;23;20018;-66
2024/01/17 01:43:59;;;;;;;12.18;6.35;;;1.00;98.50;;;;;;6240811;23;20009;-66
2024/01/17 01:46:47;;;;;;;13.00;7.65;;;1.00;98.60;;;;;;6241104;23;20437;-66
2024/01/17 01:49:35;;;;;;;13.15;6.53;;;1.00;98.60;;;;;;6241884;23;20025;-66
2024/01/17 01:52:22;;;;;;;13.05;6.85;;;1.00;98.60;;;;;;6242277;23;20073;-66
2024/01/17 01:55:09;;;;;;;9.48;6.93;;;1.00;98.60;;;;;;6242295;23;20012;-66
2024/01/17 01:57:55;;;;;;;10.55;6.57;;;0.90;98.60;;;;;;6240250;23;20507;-66
2024/01/17 02:00:41;;;;;;;10.32;7.03;;;0.90;98.60;;;;;;6240262;23;20008;-66
2024/01/17 02:03:29;;;;;;;12.20;6.80;;;0.90;98.60;;;;;;6241370;23;20004;-66
2024/01/17 02:06:18;;;;;;;12.93;7.45;;;0.90;98.60;;;;;;6239960;23;20015;-66
2024/01/17 02:09:04;;;;;;;10.57;6.82;;;0.80;98.60;;;;;;6242305;23;20024;-66
2024/01/17 02:11:50;;;;;;;12.93;7.07;;;0.80;98.60;;;;;;6240467;23;20399;-66
2024/01/17 02:14:40;;;;;;;8.82;6.45;;;0.80;98.60;;;;;;6242175;23;20008;-68
2024/01/17 02:17:26;;;;;;;9.95;6.65;;;0.80;98.60;;;;;;6241423;23;20042;-66
2024/01/17 02:20:12;;;;;;;9.07;6.38;;;0.80;98.60;;;;;;6241959;23;20015;-66
2024/01/17 02:22:58;;;;;;;11.23;5.65;;;0.80;98.60;;;;;;6242839;22;20004;-67
2024/01/17 02:25:44;;;;;;;12.07;6.57;;;0.80;98.60;;;;;;6241901;23;20766;-66
2024/01/17 02:28:30;;;;;;;10.77;6.65;;;0.80;98.60;;;;;;6240697;23;20019;-66
2024/01/17 02:31:16;;;;;;;11.80;6.28;;;0.70;98.60;;;;;;6242024;23;20015;-66
2024/01/17 02:34:03;;;;;;;11.35;6.60;;;0.70;98.60;;;;;;6239732;23;20422;-66
2024/01/17 02:36:50;;;;;;;11.73;6.55;;;0.80;98.60;;;;;;6241820;23;20400;-66
2024/01/17 02:39:35;;;;;;;13.48;7.03;;;0.70;98.60;;;;;;6241050;23;20015;-66
2024/01/17 02:42:21;;;;;;;12.82;7.47;;;0.70;98.60;;;;;;6242434;23;20011;-67
2024/01/17 02:45:07;;;;;;;12.63;6.88;;;0.70;98.60;;;;;;6240218;23;20565;-66
2024/01/17 02:47:53;;;;;;;14.65;7.65;;;0.70;98.60;;;;;;6241390;23;20023;-66
2024/01/17 02:50:39;;;;;;;16.48;8.38;;;0.70;98.60;;;;;;6240364;23;20012;-66
2024/01/17 02:53:25;;;;;;;12.60;6.97;;;0.70;98.60;;;;;;6240024;23;20036;-66
2024/01/17 02:56:11;;;;;;;16.90;8.82;;;0.60;98.60;;;;;;6241340;23;20031;-66
2024/01/17 02:58:57;;;;;;;14.80;7.60;;;0.60;98.60;;;;;;6239951;23;20019;-66
2024/01/17 03:01:43;;;;;;;15.80;8.30;;;0.60;98.60;;;;;;6240341;23;20019;-66
2024/01/17 03:04:29;;;;;;;16.73;7.40;;;0.60;98.60;;;;;;6240030;23;20026;-66
2024/01/17 03:07:15;;;;;;;15.43;8.27;;;0.60;98.60;;;;;;6241742;23;20087;-66
2024/01/17 03:10:01;;;;;;;15.45;8.13;;;0.60;98.60;;;;;;6241488;23;20020;-66
2024/01/17 03:12:47;;;;;;;14.70;7.97;;;0.50;98.60;;;;;;6240115;23;20399;-66
2024/01/17 03:15:34;;;;;;;14.60;8.60;;;0.60;98.70;;;;;;6241796;23;20015;-66
2024/01/17 03:18:20;;;;;;;14.90;8.32;;;0.60;98.70;;;;;;6240322;23;20445;-66
2024/01/17 03:21:07;;;;;;;14.75;8.27;;;0.50;98.70;;;;;;6239238;23;20016;-67
2024/01/17 03:23:53;;;;;;;14.68;8.02;;;0.50;98.60;;;;;;6240729;23;20379;-66
2024/01/17 03:26:39;;;;;;;16.17;8.38;;;0.50;98.70;;;;;;6240100;23;20387;-66
2024/01/17 03:29:25;;;;;;;15.73;7.78;;;0.50;98.60;;;;;;6239642;23;20023;-66
2024/01/17 03:32:11;;;;;;;15.23;7.75;;;0.50;98.70;;;;;;6242593;23;20091;-66
2024/01/17 03:34:57;;;;;;;15.02;7.38;;;0.50;98.70;;;;;;6242632;23;20463;-67
2024/01/17 03:37:43;;;;;;;13.23;7.28;;;0.50;98.70;;;;;;6261679;23;20067;-65
2024/01/17 03:40:29;;;;;;;13.35;7.30;;;0.50;98.70;;;;;;6245187;23;20061;-67
2024/01/17 03:43:15;;;;;;;14.00;8.00;;;0.50;98.70;;;;;;6250051;23;20352;-68
2024/01/17 03:46:01;;;;;;;12.70;7.22;;;0.50;98.70;;;;;;6244166;23;20441;-68
2024/01/17 03:48:47;;;;;;;16.30;7.75;;;0.40;98.70;;;;;;6242768;23;20020;-68
2024/01/17 03:51:33;;;;;;;14.10;8.43;;;0.40;98.70;;;;;;6239161;23;20015;-68
2024/01/17 03:54:19;;;;;;;13.95;7.95;;;0.40;98.70;;;;;;6242023;23;20036;-68
2024/01/17 03:57:05;;;;;;;12.65;6.97;;;0.40;98.70;;;;;;6220121;23;20005;-67
2024/01/17 03:59:51;;;;;;;12.32;8.00;;;0.40;98.70;;;;;;6240995;23;20012;-67
2024/01/17 04:02:37;;;;;;;10.38;6.32;;;0.30;98.70;;;;;;6240847;23;20018;-67
2024/01/17 04:05:23;;;;;;;11.35;8.02;;;0.30;98.70;;;;;;6220074;23;20095;-67
2024/01/17 04:08:09;;;;;;;9.82;6.35;;;0.40;98.70;;;;;;6241871;23;20410;-68
2024/01/17 04:10:55;;;;;;;9.43;6.15;;;0.40;98.70;;;;;;6243289;23;20425;-67
2024/01/17 04:13:44;;;;;;;15.15;7.43;;;0.30;98.70;;;;;;6241925;23;20012;-67
2024/01/17 04:16:30;;;;;;;11.63;6.25;;;0.30;98.70;;;;;;6241169;23;20155;-67
2024/01/17 04:19:16;;;;;;;10.65;6.35;;;0.30;98.70;;;;;;6241537;23;20078;-68
2024/01/17 04:22:03;;;;;;;14.88;7.20;;;0.30;98.70;;;;;;6241780;23;20019;-68
2024/01/17 04:24:49;;;;;;;14.00;7.00;;;0.30;98.70;;;;;;6242919;23;20521;-68
2024/01/17 04:27:37;;;;;;;10.93;6.40;;;0.30;98.70;;;;;;6241457;23;20502;-68
2024/01/17 04:30:24;;;;;;;10.93;7.00;;;0.20;98.70;;;;;;6243526;23;20027;-68
2024/01/17 04:33:09;;;;;;;12.10;6.63;;;0.20;98.70;;;;;;6240605;23;20004;-68
2024/01/17 04:35:55;;;;;;;12.25;6.97;;;0.10;98.70;;;;;;6220606;23;20011;-68
2024/01/17 04:38:42;;;;;;;13.30;6.65;;;0.10;98.70;;;;;;6241684;23;20012;-68
2024/01/17 04:41:28;;;;;;;10.18;6.97;;;0.10;98.70;;;;;;6243444;23;20099;-68
2024/01/17 04:44:14;;;;;;;12.63;6.88;;;0.10;98.70;;;;;;6240347;23;20012;-68
2024/01/17 04:47:00;;;;;;;12.68;6.55;;;0.10;98.70;;;;;;6242358;23;20143;-68
2024/01/17 04:49:46;;;;;;;11.43;7.05;;;0.00;98.70;;;;;;6241376;23;20348;-64
2024/01/17 04:52:32;;;;;;;10.43;6.22;;;0.00;98.70;;;;;;6240221;23;20012;-65
2024/01/17 04:55:18;;;;;;;12.63;7.13;;;0.00;98.70;;;;;;6242307;23;20019;-65
2024/01/17 04:58:04;;;;;;;11.45;6.93;;;0.00;98.70;;;;;;6243612;23;20472;-68
2024/01/17 05:00:50;;;;;;;11.07;6.65;;;-0.10;98.70;;;;;;6242962;23;20207;-70
2024/01/17 05:03:37;;;;;;;12.48;6.68;;;0.00;98.70;;;;;;6242161;23;20004;-69
2024/01/17 05:06:23;;;;;;;11.43;6.10;;;-0.10;98.60;;;;;;6243535;23;20023;-68
2024/01/17 05:09:11;;;;;;;9.82;6.18;;;-0.10;98.70;;;;;;6241295;23;20031;-66
2024/01/17 05:11:57;;;;;;;10.27;6.07;;;-0.10;98.70;;;;;;6240843;23;20008;-66
2024/01/17 05:14:43;;;;;;;11.27;6.22;;;-0.20;98.70;;;;;;6239920;23;20091;-65
2024/01/17 05:17:29;;;;;;;12.38;6.25;;;-0.20;98.70;;;;;;6242615;23;20515;-67
2024/01/17 05:20:16;;;;;;;13.32;6.72;;;-0.20;98.70;;;;;;6241582;23;20008;-65
2024/01/17 05:23:03;;;;;;;10.85;6.78;;;-0.20;98.70;;;;;;6241910;23;20012;-65
2024/01/17 05:25:48;;;;;;;12.23;6.32;;;-0.20;98.70;;;;;;6242430;23;20012;-65
2024/01/17 05:28:35;;;;;;;10.13;6.15;;;-0.20;98.70;;;;;;6239441;23;20012;-65
2024/01/17 05:31:21;;;;;;;17.02;7.15;;;-0.20;98.70;;;;;;6242648;23;20444;-65
2024/01/17 05:34:07;;;;;;;12.85;7.60;;;-0.20;98.70;;;;;;6241053;23;20083;-67
2024/01/17 05:36:53;;;;;;;12.20;6.65;;;-0.30;98.70;;;;;;6241742;23;20008;-67
2024/01/17 05:39:39;;;;;;;10.57;6.60;;;-0.30;98.70;;;;;;6240896;23;20083;-66
2024/01/17 05:42:25;;;;;;;10.75;6.85;;;-0.30;98.70;;;;;;6240915;23;20011;-65
2024/01/17 05:45:11;;;;;;;10.90;6.40;;;-0.30;98.70;;;;;;6239773;23;20058;-65
2024/01/17 05:47:57;;;;;;;10.43;6.60;;;-0.40;98.60;;;;;;6240653;23;20048;-65
2024/01/17 05:50:44;;;;;;;9.82;6.10;;;-0.40;98.60;;;;;;6242570;23;20039;-65
2024/01/17 05:53:30;;;;;;;11.65;6.72;;;-0.40;98.60;;;;;;6240994;23;20012;-65
2024/01/17 05:56:16;;;;;;;12.63;7.45;;;-0.40;98.60;;;;;;6240779;23;20088;-65
2024/01/17 05:59:02;;;;;;;11.00;6.53;;;-0.40;98.60;;;;;;6240048;23;20401;-65
2024/01/17 06:01:48;;;;;;;12.48;7.10;;;-0.40;98.60;;;;;;6215729;23;20449;-65
2024/01/17 06:04:34;;;;;;;10.45;6.30;;;-0.50;98.60;;;;;;6242156;23;20008;-66
2024/01/17 06:07:20;;;;;;;14.52;7.93;;;-0.50;98.70;;;;;;6240343;23;20445;-66
2024/01/17 06:10:08;;;;;;;11.98;7.18;;;-0.50;98.70;;;;;;6241896;23;20020;-66
2024/01/17 06:12:54;;;;;;;11.80;6.70;;;-0.50;98.70;;;;;;6240856;23;20015;-67
2024/01/17 06:15:40;;;;;;;9.95;7.32;;;-0.50;98.70;;;;;;6240230;23;20009;-67
2024/01/17 06:18:26;;;;;;;13.48;7.45;;;-0.50;98.70;;;;;;6241832;23;20004;-68
2024/01/17 06:21:12;;;;;;;12.57;7.40;;;-0.50;98.70;;;;;;6241568;23;20441;-67
2024/01/17 06:23:58;;;;;;;10.88;6.68;;;-0.60;98.60;;;;;;6239908;23;20008;-65
2024/01/17 06:26:44;;;;;;;14.00;7.60;;;-0.60;98.60;;;;;;6240652;23;20393;-65
2024/01/17 06:29:30;;;;;;;12.20;6.75;;;-0.60;98.70;;;;;;6240377;23;20019;-65
2024/01/17 06:32:16;;;;;;;12.30;7.50;;;-0.60;98.70;;;;;;6240249;23;20601;-65
2024/01/17 06:35:02;;;;;;;11.75;6.93;;;-0.60;98.70;;;;;;6239645;23;20387;-65
2024/01/17 06:37:48;;;;;;;10.93;6.85;;;-0.60;98.70;;;;;;6241253;23;20023;-64
2024/01/17 06:40:34;;;;;;;12.82;7.07;;;-0.60;98.70;;;;;;6239816;23;20007;-64
2024/01/17 06:43:20;;;;;;;11.65;6.85;;;-0.60;98.70;;;;;;6240695;23;20019;-65
2024/01/17 06:46:06;;;;;;;9.73;6.55;;;-0.60;98.70;;;;;;6241903;23;20341;-65
2024/01/17 06:48:52;;;;;;;12.00;6.78;;;-0.60;98.70;;;;;;6240265;23;20024;-65
2024/01/17 06:51:38;;;;;;;11.77;6.85;;;-0.60;98.60;;;;;;6239938;23;20087;-65
2024/01/17 06:54:24;;;;;;;14.75;7.45;;;-0.70;98.60;;;;;;6240456;23;20547;-62
2024/01/17 06:57:10;;;;;;;13.15;7.93;;;-0.70;98.60;;;;;;6234121;23;20008;-62
2024/01/17 06:59:56;;;;;;;13.35;7.47;;;-0.60;98.60;;;;;;6239659;23;20008;-61
2024/01/17 07:02:42;;;;;;;11.25;6.70;;;-0.60;98.70;;;;;;6265964;23;20508;-60
2024/01/17 07:05:28;;;;;;;12.75;7.07;;;-0.70;98.60;;;;;;6263760;23;20391;-61
2024/01/17 07:08:14;;;;;;;13.63;6.47;;;-0.60;98.60;;;;;;6239774;23;20638;-61
2024/01/17 07:11:00;;;;;;;11.88;7.07;;;-0.60;98.60;;;;;;6240280;23;20441;-61
2024/01/17 07:13:46;;;;;;;11.07;6.55;;;-0.60;98.60;;;;;;6238663;23;20008;-62
2024/01/17 07:16:32;;;;;;;15.85;7.63;;;-0.60;98.60;;;;;;6242828;23;20012;-62
2024/01/17 07:19:18;;;;;;;16.50;6.70;;;-0.60;98.70;;;;;;6240147;23;20070;-62
2024/01/17 07:22:06;;;;;;;12.75;6.80;;;-0.60;98.70;;;;;;6241999;23;20063;-62
2024/01/17 07:24:52;;;;;;;11.35;7.50;;;-0.60;98.70;;;;;;6239871;23;20016;-62
2024/01/17 07:27:43;;;;;;;11.82;6.90;;;-0.60;98.60;;;;;;6241156;23;20045;-68
2024/01/17 07:30:29;;;;;;;12.05;6.65;;;-0.60;98.70;;;;;;6239690;23;20024;-67
2024/01/17 07:33:15;;;;;;;11.43;6.55;;;-0.60;98.60;;;;;;6238150;23;20008;-68
2024/01/17 07:36:01;;;;;;;12.63;6.65;;;-0.60;98.60;;;;;;6240090;23;20016;-69
2024/01/17 07:38:48;;;;;;;10.52;6.13;;;-0.60;98.60;;;;;;6241063;23;20022;-68
2024/01/17 07:41:34;;;;;;;12.48;6.28;;;-0.60;98.60;;;;;;6243794;23;20008;-68
2024/01/17 07:44:20;;;;;;;12.60;6.63;;;-0.50;98.70;;;;;;6240540;23;20020;-62
2024/01/17 07:47:06;;;;;;;11.93;7.10;;;-0.50;98.70;;;;;;6243498;23;20027;-62
2024/01/17 07:49:52;;;;;;;10.27;6.25;;;-0.50;98.90;;;;;;6241324;23;20480;-62
2024/01/17 07:52:38;;;;;;;12.68;6.25;;;-0.50;98.80;;;;;;6220852;23;20488;-62
2024/01/17 07:55:24;;;;;;;10.55;6.10;;;-0.50;98.80;;;;;;6239718;23;20016;-62
2024/01/17 07:58:11;;;;;;;11.80;6.93;;;-0.50;98.80;;;;;;6240796;23;20012;-64
2024/01/17 08:00:57;;;;;;;12.30;6.75;;;-0.40;98.90;;;;;;6240356;23;20009;-63
2024/01/17 08:03:43;;;;;;;12.15;6.25;;;-0.40;98.90;;;;;;6241146;23;20344;-63
2024/01/17 08:06:29;;;;;;;9.57;6.18;;;-0.40;99.00;;;;;;6243248;23;20591;-63
2024/01/17 08:09:22;;;;;;;9.65;6.47;;;-0.30;99.20;;;;;;6240530;23;20019;-63
2024/01/17 08:12:08;;;;;;;12.68;6.88;;;-0.30;99.00;;;;;;6242248;23;20012;-63
2024/01/17 08:14:54;;;;;;;11.90;6.82;;;-0.30;99.10;;;;;;6241760;23;20016;-65
2024/01/17 08:17:40;;;;;;;14.25;8.95;;;-0.20;99.10;;;;;;6240964;23;20036;-65
2024/01/17 08:20:26;;;;;;;16.08;12.30;;;-0.20;99.00;;;;;;6241695;23;20039;-65
2024/01/17 08:23:12;;;;;;;15.23;10.70;;;-0.10;99.00;;;;;;6241338;23;20091;-63
2024/01/17 08:25:58;;;;;;;12.82;7.75;;;-0.10;98.90;;;;;;6241971;23;20012;-63
2024/01/17 08:28:44;;;;;;;12.00;7.18;;;-0.10;98.80;;;;;;6244311;22;20020;-63
2024/01/17 08:31:30;;;;;;;9.68;7.07;;;-0.10;98.70;;;;;;6240149;23;20077;-63
2024/01/17 08:34:17;;;;;;;13.95;7.80;;;0.00;98.90;;;;;;6238229;23;20070;-63
2024/01/17 08:37:03;;;;;;;13.55;6.70;;;0.10;98.70;;;;;;6239387;23;20019;-62
2024/01/17 08:39:49;;;;;;;11.40;6.53;;;0.10;98.80;;;;;;6242730;23;20326;-64
2024/01/17 08:42:35;;;;;;;9.43;6.53;;;0.20;98.60;;;;;;6240320;23;20369;-65
2024/01/17 08:45:22;;;;;;;9.50;6.15;;;0.20;98.50;;;;;;6239462;23;20027;-64
2024/01/17 08:48:08;;;;;;;9.27;5.95;;;0.20;98.40;;;;;;6239227;23;20007;-64
2024/01/17 08:50:54;;;;;;;9.48;5.88;;;0.30;98.40;;;;;;6240851;23;20024;-64
2024/01/17 08:53:41;;;;;;;8.50;5.82;;;0.30;98.40;;;;;;6243234;23;20059;-65
2024/01/17 08:56:27;;;;;;;9.98;5.35;;;0.30;98.30;;;;;;6241987;23;20512;-65
2024/01/17 08:59:13;;;;;;;12.35;6.07;;;0.40;98.30;;;;;;6241412;23;20352;-65
2024/01/17 09:01:59;;;;;;;11.18;6.13;;;0.40;98.30;;;;;;6236786;23;20012;-66
2024/01/17 09:04:44;;;;;;;8.90;5.65;;;0.40;98.20;;;;;;6243182;23;20039;-66
2024/01/17 09:07:32;;;;;;;8.80;4.93;;;0.50;98.20;;;;;;6241338;23;20012;-65
2024/01/17 09:10:18;;;;;;;10.98;6.07;;;0.60;98.20;;;;;;6242183;23;20027;-65
2024/01/17 09:13:04;;;;;;;11.00;6.00;;;0.60;98.10;;;;;;6240696;23;20019;-66
2024/01/17 09:15:49;;;;;;;8.70;5.13;;;0.60;98.10;;;;;;6220284;23;20404;-65
2024/01/17 09:18:35;;;;;;;8.63;5.72;;;0.70;98.10;;;;;;6242581;23;20008;-66
2024/01/17 09:21:22;;;;;;;8.23;5.50;;;0.70;98.00;;;;;;6241241;23;20345;-65
2024/01/17 09:24:07;;;;;;;9.10;6.10;;;0.70;98.00;;;;;;6242329;23;20000;-65
2024/01/17 09:26:54;;;;;;;10.82;6.00;;;0.70;97.90;;;;;;6241278;23;20482;-65
2024/01/17 09:29:40;;;;;;;10.15;5.60;;;0.80;97.90;;;;;;6240635;23;20107;-66
2024/01/17 09:32:26;;;;;;;10.38;6.22;;;0.80;97.80;;;;;;6241518;23;20429;-65
2024/01/17 09:35:12;;;;;;;10.65;6.13;;;0.80;97.80;;;;;;6240378;23;20042;-65
2024/01/17 09:37:58;;;;;;;10.13;6.50;;;0.90;97.80;;;;;;6241660;23;20013;-66
2024/01/17 09:40:49;;;;;;;14.25;7.20;;;0.90;97.70;;;;;;6238149;23;20070;-66
2024/01/17 09:43:35;;;;;;;10.90;6.53;;;0.90;97.70;;;;;;6239111;23;20460;-66
2024/01/17 09:46:21;;;;;;;10.98;7.30;;;1.00;97.70;;;;;;6242299;23;20048;-66
2024/01/17 09:49:07;;;;;;;11.82;6.80;;;1.00;97.70;;;;;;6240734;23;20026;-66
2024/01/17 09:51:53;;;;;;;10.38;6.82;;;1.10;97.70;;;;;;6239881;23;20012;-66
2024/01/17 09:54:45;;;;;;;13.27;6.95;;;1.10;97.60;;;;;;6217966;23;20375;-65
2024/01/17 09:57:36;;;;;;;10.02;5.80;;;1.20;97.60;;;;;;6242350;23;20330;-66
2024/01/17 10:00:23;;;;;;;10.25;6.15;;;1.20;97.50;;;;;;6242138;23;20318;-65
2024/01/17 10:03:11;;;;;;;9.95;6.63;;;1.20;97.60;;;;;;6239248;23;20008;-66
2024/01/17 10:05:58;;;;;;;13.25;6.78;;;1.30;97.60;;;;;;6243708;22;20075;-66
2024/01/17 10:08:46;;;;;;;10.73;6.60;;;1.40;97.60;;;;;;6242345;23;20030;-66
2024/01/17 10:11:32;;;;;;;9.95;6.43;;;1.40;97.50;;;;;;6239843;23;20018;-65
2024/01/17 10:14:21;;;;;;;14.95;6.80;;;1.50;97.50;;;;;;6240803;23;20008;-66
2024/01/17 10:17:07;;;;;;;9.75;6.30;;;1.60;97.40;;;;;;6242170;23;20004;-66
2024/01/17 10:19:53;;;;;;;13.10;7.05;;;1.70;97.40;;;;;;6240243;23;20509;-65
2024/01/17 10:22:39;;;;;;;17.48;7.38;;;1.70;97.30;;;;;;6252352;23;20000;-65
2024/01/17 10:25:25;;;;;;;16.17;6.15;;;1.80;97.30;;;;;;6266965;23;20015;-65
2024/01/17 10:28:11;;;;;;;11.15;6.47;;;1.80;97.20;;;;;;6250223;23;20012;-66
2024/01/17 10:30:57;;;;;;;13.00;6.00;;;1.90;97.10;;;;;;6240821;23;20012;-66
2024/01/17 10:33:43;;;;;;;23.90;6.97;;;1.90;97.10;;;;;;6234859;23;20007;-66
2024/01/17 10:36:29;;;;;;;44.35;10.73;;;2.00;97.10;;;;;;6242451;22;20012;-66
2024/01/17 10:39:20;;;;;;;26.40;8.30;;;2.00;96.90;;;;;;6239806;23;20016;-66
2024/01/17 10:42:06;;;;;;;14.68;7.05;;;2.00;96.90;;;;;;6232816;23;20015;-66
2024/01/17 10:44:56;;;;;;;10.60;6.50;;;2.00;97.10;;;;;;6235698;23;20024;-65
2024/01/17 10:47:42;;;;;;;11.82;6.70;;;2.10;96.80;;;;;;6242343;23;20340;-65
2024/01/17 10:50:29;;;;;;;10.27;7.05;;;2.10;96.80;;;;;;6238568;23;20345;-65
2024/01/17 10:53:18;;;;;;;9.55;6.63;;;2.20;96.90;;;;;;6219756;23;20456;-65
2024/01/17 10:56:04;;;;;;;12.18;6.93;;;2.20;96.80;;;;;;6241361;23;20141;-65
2024/01/17 10:58:51;;;;;;;10.88;6.88;;;2.30;96.80;;;;;;6238742;23;20026;-65
2024/01/17 11:01:41;;;;;;;12.88;6.47;;;2.30;96.70;;;;;;6241514;23;20018;-65
2024/01/17 11:04:30;;;;;;;10.00;6.43;;;2.40;96.70;;;;;;6241742;23;20012;-64
2024/01/17 11:07:17;;;;;;;13.02;7.20;;;2.40;96.60;;;;;;6242031;23;20018;-64
2024/01/17 11:10:05;;;;;;;10.88;6.70;;;2.40;96.60;;;;;;6238141;23;20052;-64
2024/01/17 11:12:52;;;;;;;10.32;6.20;;;2.60;96.60;;;;;;6240237;23;20059;-64
2024/01/17 11:15:39;;;;;;;9.05;6.25;;;2.60;96.50;;;;;;6240867;23;20016;-64
2024/01/17 11:18:26;;;;;;;10.10;6.30;;;2.70;96.60;;;;;;6242031;23;20043;-64
2024/01/17 11:21:12;;;;;;;10.48;6.60;;;2.70;96.50;;;;;;6241063;23;20008;-64
2024/01/17 11:24:30;;;;;;;11.13;6.70;;;2.80;96.40;;;;;;6239329;23;20066;-64
2024/01/17 11:27:27;;;;;;;8.77;5.88;;;2.80;96.30;;;;;;6239207;23;20267;-64
2024/01/17 11:30:13;;;;;;;9.80;6.30;;;2.90;96.30;;;;;;6216358;23;20349;-63
2024/01/17 11:33:07;;;;;;;13.02;6.75;;;2.90;96.30;;;;;;6240721;23;20512;-63
2024/01/17 11:35:53;;;;;;;10.65;6.53;;;3.00;96.30;;;;;;6241293;23;20043;-64
2024/01/17 11:38:39;;;;;;;10.63;7.63;;;3.00;96.20;;;;;;6239815;23;20012;-64
2024/01/17 11:41:25;;;;;;;14.23;7.50;;;3.10;96.20;;;;;;6240364;22;20078;-64
2024/01/17 11:44:12;;;;;;;9.57;6.70;;;3.10;96.10;;;;;;6240518;23;20020;-65
2024/01/17 11:47:01;;;;;;;10.63;5.93;;;3.20;96.00;;;;;;6242091;23;20091;-64
2024/01/17 11:49:47;;;;;;;10.05;5.68;;;3.20;96.00;;;;;;6240219;23;20445;-64
2024/01/17 11:52:36;;;;;;;13.40;7.03;;;3.20;95.90;;;;;;6240782;23;20026;-65
2024/01/17 11:55:31;;;;;;;11.82;6.32;;;3.20;95.80;;;;;;6241715;23;20008;-64
2024/01/17 11:58:17;;;;;;;12.65;7.05;;;3.30;95.80;;;;;;6241294;23;20005;-64
2024/01/17 12:01:05;;;;;;;10.13;6.20;;;3.30;95.80;;;;;;6240287;23;20019;-64
2024/01/17 12:03:51;;;;;;;11.93;6.03;;;3.30;95.70;;;;;;6240897;23;20011;-64
2024/01/17 12:06:38;;;;;;;10.07;6.50;;;3.30;95.70;;;;;;6241031;23;20036;-64
2024/01/17 12:09:26;;;;;;;14.13;7.22;;;3.30;95.70;;;;;;6239561;23;20024;-64
2024/01/17 12:12:20;;;;;;;13.13;6.18;;;3.30;95.60;;;;;;6239691;23;20012;-64
2024/01/17 12:15:06;;;;;;;13.27;7.63;;;3.30;95.60;;;;;;6238239;23;20014;-64
2024/01/17 12:17:52;;;;;;;12.07;6.05;;;3.30;95.60;;;;;;6239723;23;20035;-64
2024/01/17 12:20:38;;;;;;;16.65;6.18;;;3.30;95.60;;;;;;6239539;23;20082;-64
2024/01/17 12:23:24;;;;;;;13.43;6.22;;;3.30;95.50;;;;;;6240906;23;20023;-64
2024/01/17 12:26:10;;;;;;;10.45;5.85;;;3.30;95.50;;;;;;6240779;23;20081;-64
2024/01/17 12:29:10;;;;;;;11.80;6.55;;;3.30;95.40;;;;;;6243808;23;20099;-64
2024/01/17 12:31:56;;;;;;;14.52;6.30;;;3.30;95.30;;;;;;6241817;23;20012;-64
2024/01/17 12:34:42;;;;;;;12.25;6.30;;;3.40;95.40;;;;;;6221286;23;20336;-64
2024/01/17 12:37:28;;;;;;;11.40;6.18;;;3.40;95.30;;;;;;6241373;23;20009;-63
2024/01/17 12:40:14;;;;;;;11.38;6.00;;;3.40;95.30;;;;;;6240270;23;20062;-64
2024/01/17 12:43:01;;;;;;;12.15;5.57;;;3.40;95.20;;;;;;6241677;23;20019;-64
2024/01/17 12:45:48;;;;;;;13.57;6.43;;;3.40;95.20;;;;;;6243230;23;20048;-64
2024/01/17 12:48:35;;;;;;;9.77;6.22;;;3.40;95.10;;;;;;6242843;23;20098;-64
2024/01/17 12:51:21;;;;;;;8.38;5.68;;;3.50;95.10;;;;;;6241261;23;20012;-64
2024/01/17 12:54:07;;;;;;;10.02;6.05;;;3.50;95.30;;;;;;6243328;23;20140;-64
2024/01/17 12:56:55;;;;;;;8.32;5.57;;;3.50;95.10;;;;;;6240267;23;20020;-64
2024/01/17 12:59:41;;;;;;;9.45;5.57;;;3.60;95.10;;;;;;6240929;23;20012;-64
2024/01/17 13:02:28;;;;;;;10.23;5.90;;;3.60;95.10;;;;;;6241213;23;20008;-63
2024/01/17 13:05:14;;;;;;;7.55;4.97;;;3.60;95.10;;;;;;6241713;23;20019;-64
2024/01/17 13:08:15;;;;;;;11.38;5.20;;;3.60;95.00;;;;;;6236501;23;20022;-64
2024/01/17 13:11:03;;;;;;;9.63;6.13;;;3.70;95.00;;;;;;6220167;23;20020;-64
2024/01/17 13:13:53;;;;;;;8.38;5.32;;;3.70;95.00;;;;;;6241653;23;20023;-64
2024/01/17 13:16:38;;;;;;;12.13;7.22;;;3.60;94.90;;;;;;6241301;23;20078;-64
2024/01/17 13:19:24;;;;;;;9.60;5.35;;;3.60;94.90;;;;;;6241304;23;20103;-64
2024/01/17 13:22:12;;;;;;;8.18;5.40;;;3.60;94.90;;;;;;6241361;23;20111;-65
2024/01/17 13:24:58;;;;;;;8.30;5.10;;;3.60;94.90;;;;;;6241046;23;20032;-65
2024/01/17 13:27:44;;;;;;;11.77;5.30;;;3.60;94.90;;;;;;6239939;23;20008;-63
2024/01/17 13:30:38;;;;;;;11.25;6.13;;;3.60;94.80;;;;;;6241135;23;20020;-63
2024/01/17 13:33:24;;;;;;;9.77;6.03;;;3.60;94.80;;;;;;6253328;23;20027;-64
2024/01/17 13:36:10;;;;;;;8.55;5.45;;;3.60;94.80;;;;;;6270019;23;20012;-64
2024/01/17 13:38:56;;;;;;;10.57;6.35;;;3.60;94.70;;;;;;6246447;23;20012;-63
2024/01/17 13:41:42;;;;;;;7.72;5.93;;;3.60;94.70;;;;;;6240911;23;20008;-63
2024/01/17 13:44:28;;;;;;;9.55;5.20;;;3.50;94.60;;;;;;6241094;23;20034;-64
2024/01/17 13:47:14;;;;;;;8.70;5.47;;;3.50;94.60;;;;;;6242940;23;20400;-64
2024/01/17 13:50:08;;;;;;;10.63;6.25;;;3.50;94.60;;;;;;6239744;23;20103;-64
2024/01/17 13:52:59;;;;;;;9.45;5.35;;;3.50;94.60;;;;;;6241301;23;20083;-64
2024/01/17 13:55:45;;;;;;;10.48;6.07;;;3.50;94.60;;;;;;6241890;23;20087;-63
2024/01/17 13:58:34;;;;;;;9.23;6.35;;;3.50;94.70;;;;;;6219455;23;20012;-63
2024/01/17 14:01:20;;;;;;;10.07;6.13;;;3.50;94.60;;;;;;6219113;23;20020;-63
2024/01/17 14:04:06;;;;;;;10.20;6.10;;;3.40;94.60;;;;;;6239643;23;20015;-64
2024/01/17 14:06:52;;;;;;;11.05;6.78;;;3.40;94.60;;;;;;6238886;23;20019;-63
2024/01/17 14:09:39;;;;;;;8.93;5.53;;;3.40;94.60;;;;;;6239014;23;20047;-63
2024/01/17 14:12:25;;;;;;;9.68;5.35;;;3.40;94.60;;;;;;6241033;23;20409;-63
2024/01/17 14:15:10;;;;;;;10.77;6.30;;;3.40;94.50;;;;;;6240264;23;20444;-63
2024/01/17 14:17:59;;;;;;;14.02;6.70;;;3.40;94.50;;;;;;6242074;23;20082;-63
2024/01/17 14:20:45;;;;;;;8.13;5.93;;;3.40;94.50;;;;;;6242103;23;20347;-63
2024/01/17 14:23:31;;;;;;;10.00;5.97;;;3.40;94.50;;;;;;6240845;23;20012;-64
2024/01/17 14:26:18;;;;;;;11.90;5.22;;;3.40;94.50;;;;;;6240818;23;20535;-64